Time;durP1;ratioP1;P1;durP2;ratioP2;P2;SDS_P1;SDS_P2;PMS_P1;PMS_P2;Temp;Humidity;BMP_temperature;BMP_pressure;BME280_temperature;BME280_humidity;BME280_pressure;Samples;Min_cycle;Max_cycle;Signal;HPM_P1;HPM_P2
2023/08/17 00:00:13;;;;;;;;;;;;;;;;;;2211321;59;2625;-24
2023/08/17 00:02:43;;;;;;;;;;;;;;;;;;2211627;59;2834;-24
2023/08/17 00:05:14;;;;;;;;;;;;;;;;;;2211175;59;2200;-24
2023/08/17 00:07:47;;;;;;;;;;;;;;;;;;2211575;66;1967;-24
2023/08/17 00:10:17;;;;;;;;;;;;;;;;;;2210961;66;2012;-24
2023/08/17 00:12:47;;;;;;;;;;;;;;;;;;2211514;59;3115;-24
2023/08/17 00:15:17;;;;;;;;;;;;;;;;;;2211320;66;1877;-24
2023/08/17 00:17:48;;;;;;;;;;;;;;;;;;2211789;66;1982;-24
2023/08/17 00:20:18;;;;;;;;;;;;;;;;;;2209798;67;1759;-24
2023/08/17 00:22:48;;;;;;;;;;;;;;;;;;2208372;66;1796;-24
2023/08/17 00:25:18;;;;;;;;;;;;;;;;;;2212127;66;1976;-24
2023/08/17 00:27:49;;;;;;;;;;;;;;;;;;2208793;66;2175;-24
2023/08/17 00:30:19;;;;;;;;;;;;;;;;;;2211523;59;2612;-24
2023/08/17 00:32:49;;;;;;;;;;;;;;;;;;2211621;59;1951;-24
2023/08/17 00:35:20;;;;;;;;;;;;;;;;;;2212059;66;1954;-24
2023/08/17 00:37:50;;;;;;;;;;;;;;;;;;2210862;66;2330;-24
2023/08/17 00:40:20;;;;;;;;;;;;;;;;;;2208271;66;1544;-24
2023/08/17 00:42:51;;;;;;;;;;;;;;;;;;2211505;66;1855;-24
2023/08/17 00:45:22;;;;;;;;;;;;;;;;;;2211628;59;1956;-24
2023/08/17 00:47:55;;;;;;;;;;;;;;;;;;2211838;66;2691;-24
2023/08/17 00:50:27;;;;;;;;;;;;;;;;;;2211709;59;1789;-24
2023/08/17 00:52:57;;;;;;;;;;;;;;;;;;2211747;59;2025;-24
2023/08/17 00:55:28;;;;;;;;;;;;;;;;;;2212622;59;2076;-24
2023/08/17 00:57:58;;;;;;;;;;;;;;;;;;2211962;66;1931;-24
2023/08/17 01:00:28;;;;;;;;;;;;;;;;;;2211683;59;2945;-24
2023/08/17 01:02:59;;;;;;;;;;;;;;;;;;2210762;66;2067;-24
2023/08/17 01:05:29;;;;;;;;;;;;;;;;;;2207516;59;2612;-24
2023/08/17 01:07:59;;;;;;;;;;;;;;;;;;2211192;66;2057;-24
2023/08/17 01:10:37;;;;;;;;;;;;;;;;;;2205474;67;2008;-24
2023/08/17 01:13:20;;;;;;;;;;;;;;;;;;2216922;53;2062;-21
2023/08/17 01:15:53;;;;;;;;;;;;;;;;;;2210765;66;1717;-21
2023/08/17 01:18:28;;;;;;;;;;;;;;;;;;2211406;66;1928;-21
2023/08/17 01:21:00;;;;;;;;;;;;;;;;;;2214702;66;2560;-21
2023/08/17 01:23:30;;;;;;;;;;;;;;;;;;2215336;66;1749;-21
2023/08/17 01:26:00;;;;;;;;;;;;;;;;;;2214959;58;1755;-21
2023/08/17 01:28:31;;;;;;;;;;;;;;;;;;2215076;66;1601;-21
2023/08/17 01:31:14;;;;;;;;;;;;;;;;;;2214748;66;1820;-21
2023/08/17 01:33:48;;;;;;;;;;;;;;;;;;2212582;59;1307;-21
2023/08/17 01:36:34;;;;;;;;;;;;;;;;;;2215295;66;1374;-21
2023/08/17 01:39:05;;;;;;;;;;;;;;;;;;2214544;66;1931;-21
2023/08/17 01:41:37;;;;;;;;;;;;;;;;;;2212282;66;1635;-21
2023/08/17 01:44:07;;;;;;;;;;;;;;;;;;2214883;58;2214;-21
2023/08/17 01:46:38;;;;;;;;;;;;;;;;;;2214962;58;1483;-21
2023/08/17 01:49:11;;;;;;;;;;;;;;;;;;2214934;66;2085;-21
2023/08/17 01:51:41;;;;;;;;;;;;;;;;;;2215729;58;2165;-21
2023/08/17 01:54:11;;;;;;;;;;;;;;;;;;2215472;58;1783;-21
2023/08/17 01:56:41;;;;;;;;;;;;;;;;;;2215584;59;1439;-21
2023/08/17 01:59:12;;;;;;;;;;;;;;;;;;2215575;66;1944;-21
2023/08/17 02:01:43;;;;;;;;;;;;;;;;;;2215874;58;1786;-21
2023/08/17 02:04:13;;;;;;;;;;;;;;;;;;2214832;58;2271;-22
2023/08/17 02:06:43;;;;;;;;;;;;;;;;;;2214133;66;3070;-21
2023/08/17 02:09:13;;;;;;;;;;;;;;;;;;2211273;66;1789;-21
2023/08/17 02:11:43;;;;;;;;;;;;;;;;;;2214953;58;2434;-21
2023/08/17 02:14:14;;;;;;;;;;;;;;;;;;2214396;66;2582;-21
2023/08/17 02:16:44;;;;;;;;;;;;;;;;;;2214994;66;1888;-21
2023/08/17 02:19:14;;;;;;;;;;;;;;;;;;2213922;66;2032;-21
2023/08/17 02:21:45;;;;;;;;;;;;;;;;;;2215052;66;2054;-21
2023/08/17 02:24:15;;;;;;;;;;;;;;;;;;2214498;66;1834;-21
2023/08/17 02:26:45;;;;;;;;;;;;;;;;;;2215020;66;1830;-21
2023/08/17 02:29:15;;;;;;;;;;;;;;;;;;2214283;66;1700;-21
2023/08/17 02:31:46;;;;;;;;;;;;;;;;;;2214216;58;1380;-21
2023/08/17 02:34:16;;;;;;;;;;;;;;;;;;2214626;59;1951;-21
2023/08/17 02:36:52;;;;;;;;;;;;;;;;;;2215072;66;1404;-21
2023/08/17 02:39:22;;;;;;;;;;;;;;;;;;2215189;66;1941;-21
2023/08/17 02:41:52;;;;;;;;;;;;;;;;;;2215334;66;1469;-21
2023/08/17 02:44:22;;;;;;;;;;;;;;;;;;2214788;59;1437;-21
2023/08/17 02:46:53;;;;;;;;;;;;;;;;;;2215149;66;1222;-21
2023/08/17 02:49:23;;;;;;;;;;;;;;;;;;2215709;58;1444;-21
2023/08/17 02:51:53;;;;;;;;;;;;;;;;;;2214984;58;1452;-21
2023/08/17 02:54:23;;;;;;;;;;;;;;;;;;2215399;58;1695;-21
2023/08/17 02:56:54;;;;;;;;;;;;;;;;;;2215109;59;1412;-21
2023/08/17 02:59:24;;;;;;;;;;;;;;;;;;2215774;66;2355;-21
2023/08/17 03:01:54;;;;;;;;;;;;;;;;;;2209629;59;1827;-21
2023/08/17 03:04:28;;;;;;;;;;;;;;;;;;2215975;59;1313;-21
2023/08/17 03:06:58;;;;;;;;;;;;;;;;;;2213051;59;2463;-21
2023/08/17 03:09:28;;;;;;;;;;;;;;;;;;2215459;66;2341;-21
2023/08/17 03:11:58;;;;;;;;;;;;;;;;;;2211912;59;1744;-21
2023/08/17 03:14:28;;;;;;;;;;;;;;;;;;2215297;66;1745;-22
2023/08/17 03:16:59;;;;;;;;;;;;;;;;;;2214890;66;1739;-21
2023/08/17 03:19:29;;;;;;;;;;;;;;;;;;2211491;66;2015;-21
2023/08/17 03:21:59;;;;;;;;;;;;;;;;;;2214455;59;1704;-21
2023/08/17 03:24:29;;;;;;;;;;;;;;;;;;2214818;66;1792;-21
2023/08/17 03:26:59;;;;;;;;;;;;;;;;;;2213988;66;2219;-21
2023/08/17 03:29:30;;;;;;;;;;;;;;;;;;2215766;66;1999;-21
2023/08/17 03:32:00;;;;;;;;;;;;;;;;;;2215433;58;1980;-22
2023/08/17 03:34:30;;;;;;;;;;;;;;;;;;2215813;58;1942;-21
2023/08/17 03:37:00;;;;;;;;;;;;;;;;;;2215539;66;1813;-21
2023/08/17 03:39:30;;;;;;;;;;;;;;;;;;2216092;66;1923;-21
2023/08/17 03:42:01;;;;;;;;;;;;;;;;;;2214700;66;2289;-21
2023/08/17 03:44:31;;;;;;;;;;;;;;;;;;2211854;59;1914;-21
2023/08/17 03:47:01;;;;;;;;;;;;;;;;;;2214410;66;1622;-21
2023/08/17 03:49:31;;;;;;;;;;;;;;;;;;2215222;58;2591;-21
2023/08/17 03:52:01;;;;;;;;;;;;;;;;;;2215526;58;2391;-21
2023/08/17 03:54:32;;;;;;;;;;;;;;;;;;2215495;58;1749;-21
2023/08/17 03:57:02;;;;;;;;;;;;;;;;;;2214433;58;3196;-21
2023/08/17 03:59:32;;;;;;;;;;;;;;;;;;2212475;66;3161;-21
2023/08/17 04:02:03;;;;;;;;;;;;;;;;;;2211266;58;1824;-21
2023/08/17 04:04:33;;;;;;;;;;;;;;;;;;2215358;58;1832;-21
2023/08/17 04:07:03;;;;;;;;;;;;;;;;;;2213321;66;2756;-21
2023/08/17 04:09:34;;;;;;;;;;;;;;;;;;2215181;66;2627;-21
2023/08/17 04:12:05;;;;;;;;;;;;;;;;;;2211549;58;2211;-21
2023/08/17 04:14:36;;;;;;;;;;;;;;;;;;2214239;66;1740;-21
2023/08/17 04:17:06;;;;;;;;;;;;;;;;;;2214019;58;2111;-21
2023/08/17 04:19:36;;;;;;;;;;;;;;;;;;2215262;66;2804;-21
2023/08/17 04:22:07;;;;;;;;;;;;;;;;;;2214913;66;1940;-22
2023/08/17 04:24:37;;;;;;;;;;;;;;;;;;2215175;66;1758;-22
2023/08/17 04:27:07;;;;;;;;;;;;;;;;;;2210932;59;1767;-22
2023/08/17 04:29:37;;;;;;;;;;;;;;;;;;2214988;66;2033;-22
2023/08/17 04:32:13;;;;;;;;;;;;;;;;;;2214643;58;2832;-22
2023/08/17 04:34:44;;;;;;;;;;;;;;;;;;2211610;66;1682;-21
2023/08/17 04:37:15;;;;;;;;;;;;;;;;;;2207786;66;1842;-21
2023/08/17 04:39:48;;;;;;;;;;;;;;;;;;2211765;66;1956;-21
2023/08/17 04:42:19;;;;;;;;;;;;;;;;;;2212511;66;1639;-21
2023/08/17 04:44:50;;;;;;;;;;;;;;;;;;2215314;59;1887;-21
2023/08/17 04:47:20;;;;;;;;;;;;;;;;;;2215466;66;1867;-21
2023/08/17 04:49:50;;;;;;;;;;;;;;;;;;2212014;58;1805;-21
2023/08/17 04:52:20;;;;;;;;;;;;;;;;;;2214937;58;2359;-21
2023/08/17 04:54:50;;;;;;;;;;;;;;;;;;2215791;58;2407;-21
2023/08/17 04:57:21;;;;;;;;;;;;;;;;;;2215347;66;1917;-21
2023/08/17 04:59:51;;;;;;;;;;;;;;;;;;2211979;58;2343;-21
2023/08/17 05:02:21;;;;;;;;;;;;;;;;;;2214967;66;2385;-22
2023/08/17 05:04:51;;;;;;;;;;;;;;;;;;2215387;59;2005;-21
2023/08/17 05:07:21;;;;;;;;;;;;;;;;;;2214800;66;2761;-21
2023/08/17 05:09:52;;;;;;;;;;;;;;;;;;2214922;66;2939;-21
2023/08/17 05:12:22;;;;;;;;;;;;;;;;;;2214727;58;1788;-21
2023/08/17 05:14:52;;;;;;;;;;;;;;;;;;2214782;66;1996;-21
2023/08/17 05:17:22;;;;;;;;;;;;;;;;;;2214962;66;1828;-21
2023/08/17 05:19:52;;;;;;;;;;;;;;;;;;2214907;59;2002;-21
2023/08/17 05:22:23;;;;;;;;;;;;;;;;;;2214833;66;2175;-21
2023/08/17 05:24:53;;;;;;;;;;;;;;;;;;2212599;66;1769;-21
2023/08/17 05:27:23;;;;;;;;;;;;;;;;;;2214618;66;2183;-21
2023/08/17 05:29:54;;;;;;;;;;;;;;;;;;2214407;59;4855;-21
2023/08/17 05:32:24;;;;;;;;;;;;;;;;;;2211536;58;1757;-21
2023/08/17 05:34:57;;;;;;;;;;;;;;;;;;2214262;66;1738;-21
2023/08/17 05:37:27;;;;;;;;;;;;;;;;;;2214432;66;2737;-21
2023/08/17 05:39:57;;;;;;;;;;;;;;;;;;2214457;66;2124;-21
2023/08/17 05:42:27;;;;;;;;;;;;;;;;;;2215010;66;1808;-21
2023/08/17 05:44:58;;;;;;;;;;;;;;;;;;2214949;58;1998;-21
2023/08/17 05:47:28;;;;;;;;;;;;;;;;;;2214726;66;1682;-21
2023/08/17 05:49:58;;;;;;;;;;;;;;;;;;2214561;58;1462;-21
2023/08/17 05:52:28;;;;;;;;;;;;;;;;;;2214569;58;1973;-22
2023/08/17 05:54:58;;;;;;;;;;;;;;;;;;2214031;58;2527;-22
2023/08/17 05:57:29;;;;;;;;;;;;;;;;;;2214635;58;1867;-21
2023/08/17 05:59:59;;;;;;;;;;;;;;;;;;2214512;58;1994;-22
2023/08/17 06:02:29;;;;;;;;;;;;;;;;;;2213887;66;1708;-21
2023/08/17 06:04:59;;;;;;;;;;;;;;;;;;2213969;59;1771;-22
2023/08/17 06:07:30;;;;;;;;;;;;;;;;;;2214253;66;2608;-22
2023/08/17 06:10:02;;;;;;;;;;;;;;;;;;2213806;66;2466;-22
2023/08/17 06:12:32;;;;;;;;;;;;;;;;;;2211051;59;1851;-22
2023/08/17 06:15:03;;;;;;;;;;;;;;;;;;2214809;66;1814;-21
2023/08/17 06:17:33;;;;;;;;;;;;;;;;;;2215034;66;2081;-22
2023/08/17 06:20:04;;;;;;;;;;;;;;;;;;2214441;66;2006;-21
2023/08/17 06:22:34;;;;;;;;;;;;;;;;;;2214696;66;2010;-21
2023/08/17 06:25:05;;;;;;;;;;;;;;;;;;2211664;66;2042;-21
2023/08/17 06:27:36;;;;;;;;;;;;;;;;;;2214654;58;1642;-21
2023/08/17 06:30:06;;;;;;;;;;;;;;;;;;2215367;66;2042;-21
2023/08/17 06:32:37;;;;;;;;;;;;;;;;;;2215317;58;1843;-21
2023/08/17 06:35:07;;;;;;;;;;;;;;;;;;2210651;66;1589;-21
2023/08/17 06:37:37;;;;;;;;;;;;;;;;;;2213737;66;1754;-21
2023/08/17 06:40:11;;;;;;;;;;;;;;;;;;2214064;66;2099;-21
2023/08/17 06:42:41;;;;;;;;;;;;;;;;;;2214925;66;1976;-21
2023/08/17 06:45:12;;;;;;;;;;;;;;;;;;2213895;58;1957;-21
2023/08/17 06:47:42;;;;;;;;;;;;;;;;;;2214953;66;2034;-21
2023/08/17 06:50:12;;;;;;;;;;;;;;;;;;2214378;58;1340;-21
2023/08/17 06:52:43;;;;;;;;;;;;;;;;;;2215271;58;1543;-21
2023/08/17 06:55:14;;;;;;;;;;;;;;;;;;2214780;66;1665;-30
2023/08/17 06:57:44;;;;;;;;;;;;;;;;;;2214651;58;1995;-22
2023/08/17 07:00:15;;;;;;;;;;;;;;;;;;2210873;59;1794;-22
2023/08/17 07:02:45;;;;;;;;;;;;;;;;;;2215435;59;1292;-21
2023/08/17 07:05:16;;;;;;;;;;;;;;;;;;2214722;59;1430;-22
2023/08/17 07:07:46;;;;;;;;;;;;;;;;;;2211718;66;2130;-22
2023/08/17 07:10:16;;;;;;;;;;;;;;;;;;2213777;66;2651;-22
2023/08/17 07:12:47;;;;;;;;;;;;;;;;;;2214841;58;2599;-22
2023/08/17 07:15:17;;;;;;;;;;;;;;;;;;2214227;66;1856;-21
2023/08/17 07:17:47;;;;;;;;;;;;;;;;;;2214622;66;1929;-22
2023/08/17 07:20:17;;;;;;;;;;;;;;;;;;2214473;66;2370;-22
2023/08/17 07:22:48;;;;;;;;;;;;;;;;;;2211711;66;2273;-22
2023/08/17 07:25:18;;;;;;;;;;;;;;;;;;2215027;66;2707;-22
2023/08/17 07:27:49;;;;;;;;;;;;;;;;;;2214836;66;1890;-22
2023/08/17 07:30:19;;;;;;;;;;;;;;;;;;2211607;58;2385;-22
2023/08/17 07:32:49;;;;;;;;;;;;;;;;;;2215734;58;1723;-22
2023/08/17 07:35:20;;;;;;;;;;;;;;;;;;2217642;66;1763;-22
2023/08/17 07:37:50;;;;;;;;;;;;;;;;;;2215191;66;2029;-22
2023/08/17 07:40:20;;;;;;;;;;;;;;;;;;2214368;66;2018;-22
2023/08/17 07:42:56;;;;;;;;;;;;;;;;;;2216148;58;1851;-23
2023/08/17 07:45:29;;;;;;;;;;;;;;;;;;2211007;59;1842;-22
2023/08/17 07:48:03;;;;;;;;;;;;;;;;;;2211135;66;2031;-22
2023/08/17 07:50:33;;;;;;;;;;;;;;;;;;2214560;58;1784;-23
2023/08/17 07:53:03;;;;;;;;;;;;;;;;;;2214950;58;1868;-22
2023/08/17 07:55:34;;;;;;;;;;;;;;;;;;2215184;58;2376;-22
2023/08/17 07:58:06;;;;;;;;;;;;;;;;;;2211276;66;1942;-22
2023/08/17 08:00:36;;;;;;;;;;;;;;;;;;2214968;58;1712;-22
2023/08/17 08:03:07;;;;;;;;;;;;;;;;;;2214806;66;2145;-22
2023/08/17 08:05:37;;;;;;;;;;;;;;;;;;2211991;66;2699;-23
2023/08/17 08:08:07;;;;;;;;;;;;;;;;;;2214877;66;2516;-23
2023/08/17 08:10:38;;;;;;;;;;;;;;;;;;2211377;66;2175;-23
2023/08/17 08:13:08;;;;;;;;;;;;;;;;;;2214242;58;2622;-23
2023/08/17 08:15:38;;;;;;;;;;;;;;;;;;2216566;66;1720;-23
2023/08/17 08:18:08;;;;;;;;;;;;;;;;;;2216365;66;2769;-22
2023/08/17 08:20:38;;;;;;;;;;;;;;;;;;2215041;66;2093;-23
2023/08/17 08:23:09;;;;;;;;;;;;;;;;;;2209644;66;2052;-23
2023/08/17 08:25:39;;;;;;;;;;;;;;;;;;2215780;66;1780;-22
2023/08/17 08:28:09;;;;;;;;;;;;;;;;;;2211690;66;2002;-22
2023/08/17 08:30:39;;;;;;;;;;;;;;;;;;2213375;66;2047;-22
2023/08/17 08:33:10;;;;;;;;;;;;;;;;;;2215479;58;1824;-22
2023/08/17 08:35:40;;;;;;;;;;;;;;;;;;2210190;59;2433;-22
2023/08/17 08:38:10;;;;;;;;;;;;;;;;;;2214695;66;3094;-22
2023/08/17 08:40:41;;;;;;;;;;;;;;;;;;2212324;66;1680;-22
2023/08/17 08:43:11;;;;;;;;;;;;;;;;;;2211576;66;1979;-22
2023/08/17 08:45:41;;;;;;;;;;;;;;;;;;2214901;58;1495;-22
2023/08/17 08:48:13;;;;;;;;;;;;;;;;;;2215308;66;1973;-22
2023/08/17 08:50:45;;;;;;;;;;;;;;;;;;2215543;58;1670;-20
2023/08/17 08:53:17;;;;;;;;;;;;;;;;;;2215241;58;1671;-20
2023/08/17 08:55:51;;;;;;;;;;;;;;;;;;2216027;58;1606;-21
2023/08/17 08:58:21;;;;;;;;;;;;;;;;;;2215072;66;1928;-21
2023/08/17 09:00:52;;;;;;;;;;;;;;;;;;2216168;58;1236;-21
2023/08/17 09:03:22;;;;;;;;;;;;;;;;;;2215716;66;1266;-21
2023/08/17 09:05:54;;;;;;;;;;;;;;;;;;2215567;58;1706;-20
2023/08/17 09:08:27;;;;;;;;;;;;;;;;;;2214884;66;1207;-21
2023/08/17 09:10:57;;;;;;;;;;;;;;;;;;2215340;66;2166;-21
2023/08/17 09:13:28;;;;;;;;;;;;;;;;;;2210753;59;2736;-21
2023/08/17 09:15:59;;;;;;;;;;;;;;;;;;2214581;66;1820;-21
2023/08/17 09:18:30;;;;;;;;;;;;;;;;;;2215853;66;1982;-21
2023/08/17 09:21:01;;;;;;;;;;;;;;;;;;2215453;66;1623;-21
2023/08/17 09:23:31;;;;;;;;;;;;;;;;;;2214962;66;1304;-21
2023/08/17 09:26:07;;;;;;;;;;;;;;;;;;2215418;58;1680;-21
2023/08/17 09:28:39;;;;;;;;;;;;;;;;;;2215142;66;1330;-21
2023/08/17 09:31:09;;;;;;;;;;;;;;;;;;2214779;58;1324;-21
2023/08/17 09:33:39;;;;;;;;;;;;;;;;;;2212499;59;2033;-21
2023/08/17 09:36:11;;;;;;;;;;;;;;;;;;2215623;58;1679;-21
2023/08/17 09:38:41;;;;;;;;;;;;;;;;;;2214984;66;1935;-21
2023/08/17 09:41:13;;;;;;;;;;;;;;;;;;2215698;66;1469;-21
2023/08/17 09:43:44;;;;;;;;;;;;;;;;;;2215145;66;1238;-20
2023/08/17 09:46:17;;;;;;;;;;;;;;;;;;2211885;59;1533;-21
2023/08/17 09:48:51;;;;;;;;;;;;;;;;;;2215350;66;1769;-21
2023/08/17 09:51:21;;;;;;;;;;;;;;;;;;2214780;58;1998;-21
2023/08/17 09:53:52;;;;;;;;;;;;;;;;;;2215453;58;1776;-21
2023/08/17 09:56:23;;;;;;;;;;;;;;;;;;2215203;66;2009;-21
2023/08/17 09:58:54;;;;;;;;;;;;;;;;;;2211870;66;1925;-21
2023/08/17 10:01:28;;;;;;;;;;;;;;;;;;2216174;58;1152;-21
2023/08/17 10:03:59;;;;;;;;;;;;;;;;;;2214514;59;2265;-21
2023/08/17 10:06:32;;;;;;;;;;;;;;;;;;2215328;66;1675;-21
2023/08/17 10:09:02;;;;;;;;;;;;;;;;;;2215743;66;1583;-21
2023/08/17 10:11:36;;;;;;;;;;;;;;;;;;2211889;59;1705;-21
2023/08/17 10:14:13;;;;;;;;;;;;;;;;;;2210823;59;3061;-21
2023/08/17 10:16:43;;;;;;;;;;;;;;;;;;2215089;66;1791;-21
2023/08/17 10:19:13;;;;;;;;;;;;;;;;;;2215566;66;2796;-21
2023/08/17 10:21:46;;;;;;;;;;;;;;;;;;2215033;66;2396;-21
2023/08/17 10:24:17;;;;;;;;;;;;;;;;;;2215093;66;1831;-21
2023/08/17 10:26:49;;;;;;;;;;;;;;;;;;2214788;66;1767;-21
2023/08/17 10:29:21;;;;;;;;;;;;;;;;;;2216380;66;1724;-21
2023/08/17 10:31:52;;;;;;;;;;;;;;;;;;2216580;58;2175;-21
2023/08/17 10:34:22;;;;;;;;;;;;;;;;;;2216014;58;2233;-21
2023/08/17 10:36:57;;;;;;;;;;;;;;;;;;2216613;59;1727;-21
2023/08/17 10:39:28;;;;;;;;;;;;;;;;;;2214289;66;2300;-21
2023/08/17 10:41:58;;;;;;;;;;;;;;;;;;2215573;66;1300;-21
2023/08/17 10:44:45;;;;;;;;;;;;;;;;;;2215405;58;1781;-21
2023/08/17 10:47:19;;;;;;;;;;;;;;;;;;2215462;66;2079;-21
2023/08/17 10:49:50;;;;;;;;;;;;;;;;;;2214790;58;2051;-21
2023/08/17 10:52:26;;;;;;;;;;;;;;;;;;2216108;58;1391;-21
2023/08/17 10:54:59;;;;;;;;;;;;;;;;;;2216781;66;1973;-21
2023/08/17 10:57:30;;;;;;;;;;;;;;;;;;2216521;58;1996;-21
2023/08/17 11:00:15;;;;;;;;;;;;;;;;;;2215998;58;1929;-21
2023/08/17 11:02:54;;;;;;;;;;;;;;;;;;2209893;66;1369;-21
2023/08/17 11:05:43;;;;;;;;;;;;;;;;;;2212513;59;1322;-21
2023/08/17 11:08:24;;;;;;;;;;;;;;;;;;2214596;66;1717;-21
2023/08/17 11:10:58;;;;;;;;;;;;;;;;;;2214279;58;1544;-21
2023/08/17 11:13:32;;;;;;;;;;;;;;;;;;2214239;58;2482;-21
2023/08/17 11:16:03;;;;;;;;;;;;;;;;;;2214375;66;2421;-21
2023/08/17 11:18:34;;;;;;;;;;;;;;;;;;2214193;66;1933;-21
2023/08/17 11:21:05;;;;;;;;;;;;;;;;;;2214686;66;1927;-21
2023/08/17 11:23:36;;;;;;;;;;;;;;;;;;2211685;59;2436;-21
2023/08/17 11:26:07;;;;;;;;;;;;;;;;;;2214677;66;1918;-21
2023/08/17 11:28:40;;;;;;;;;;;;;;;;;;2214832;66;1745;-21
2023/08/17 11:31:11;;;;;;;;;;;;;;;;;;2214839;66;2700;-21
2023/08/17 11:33:42;;;;;;;;;;;;;;;;;;2212238;59;2904;-21
2023/08/17 11:36:12;;;;;;;;;;;;;;;;;;2214969;66;1611;-21
2023/08/17 11:38:43;;;;;;;;;;;;;;;;;;2214965;66;1992;-21
2023/08/17 11:41:17;;;;;;;;;;;;;;;;;;2211687;66;1466;-21
2023/08/17 11:43:49;;;;;;;;;;;;;;;;;;2215190;66;1641;-20
2023/08/17 11:46:21;;;;;;;;;;;;;;;;;;2212497;59;1590;-21
2023/08/17 11:48:53;;;;;;;;;;;;;;;;;;2215279;66;1595;-21
2023/08/17 11:51:30;;;;;;;;;;;;;;;;;;2215903;58;1533;-21
2023/08/17 11:54:03;;;;;;;;;;;;;;;;;;2215749;58;2088;-21
2023/08/17 11:56:33;;;;;;;;;;;;;;;;;;2215679;59;1709;-21
2023/08/17 11:59:19;;;;;;;;;;;;;;;;;;2215299;66;1980;-20
2023/08/17 12:01:50;;;;;;;;;;;;;;;;;;2215874;58;1659;-20
2023/08/17 12:04:23;;;;;;;;;;;;;;;;;;2215623;59;1444;-21
2023/08/17 12:06:54;;;;;;;;;;;;;;;;;;2215127;66;1196;-21
2023/08/17 12:09:24;;;;;;;;;;;;;;;;;;2212737;66;1982;-21
2023/08/17 12:12:01;;;;;;;;;;;;;;;;;;2215575;58;1506;-21
2023/08/17 12:14:31;;;;;;;;;;;;;;;;;;2215495;59;2245;-21
2023/08/17 12:17:01;;;;;;;;;;;;;;;;;;2210854;59;2389;-21
2023/08/17 12:19:31;;;;;;;;;;;;;;;;;;2215989;66;2459;-21
2023/08/17 12:22:02;;;;;;;;;;;;;;;;;;2215700;59;1774;-21
2023/08/17 12:24:32;;;;;;;;;;;;;;;;;;2215539;66;1817;-21
2023/08/17 12:27:03;;;;;;;;;;;;;;;;;;2215287;58;2114;-21
2023/08/17 12:29:33;;;;;;;;;;;;;;;;;;2215660;66;2012;-21
2023/08/17 12:32:04;;;;;;;;;;;;;;;;;;2215246;58;2370;-21
2023/08/17 12:34:34;;;;;;;;;;;;;;;;;;2212824;66;1959;-21
2023/08/17 12:37:04;;;;;;;;;;;;;;;;;;2209307;66;1936;-21
2023/08/17 12:39:34;;;;;;;;;;;;;;;;;;2214992;66;2018;-21
2023/08/17 12:42:05;;;;;;;;;;;;;;;;;;2214916;66;1480;-21
2023/08/17 12:44:35;;;;;;;;;;;;;;;;;;2215549;58;1866;-21
2023/08/17 12:47:05;;;;;;;;;;;;;;;;;;2212449;59;2392;-21
2023/08/17 12:49:36;;;;;;;;;;;;;;;;;;2215386;58;2904;-21
2023/08/17 12:52:06;;;;;;;;;;;;;;;;;;2215525;59;2176;-21
2023/08/17 12:54:36;;;;;;;;;;;;;;;;;;2215747;66;2735;-21
2023/08/17 12:57:07;;;;;;;;;;;;;;;;;;2215643;58;1702;-21
2023/08/17 12:59:37;;;;;;;;;;;;;;;;;;2215365;66;1994;-21
2023/08/17 13:02:07;;;;;;;;;;;;;;;;;;2215470;58;1786;-21
2023/08/17 13:04:37;;;;;;;;;;;;;;;;;;2214958;59;2455;-21
2023/08/17 13:07:08;;;;;;;;;;;;;;;;;;2215110;59;2068;-21
2023/08/17 13:09:38;;;;;;;;;;;;;;;;;;2215380;66;2043;-21
2023/08/17 13:12:08;;;;;;;;;;;;;;;;;;2220169;53;2422;-19
2023/08/17 13:14:38;;;;;;;;;;;;;;;;;;2207509;59;2489;-20
2023/08/17 13:17:08;;;;;;;;;;;;;;;;;;2206699;63;2693;-19
2023/08/17 13:19:39;;;;;;;;;;;;;;;;;;2208512;67;2618;-19
2023/08/17 13:22:10;;;;;;;;;;;;;;;;;;2207840;67;1571;-19
2023/08/17 13:24:40;;;;;;;;;;;;;;;;;;2208945;67;1872;-19
2023/08/17 13:27:10;;;;;;;;;;;;;;;;;;2211812;67;1665;-19
2023/08/17 13:29:40;;;;;;;;;;;;;;;;;;2212372;67;1892;-19
2023/08/17 13:32:11;;;;;;;;;;;;;;;;;;2212102;59;1554;-19
2023/08/17 13:34:41;;;;;;;;;;;;;;;;;;2211591;67;1182;-19
2023/08/17 13:37:11;;;;;;;;;;;;;;;;;;2211827;59;1607;-19
2023/08/17 13:39:42;;;;;;;;;;;;;;;;;;2211542;67;1928;-21
2023/08/17 13:42:12;;;;;;;;;;;;;;;;;;2211530;67;2017;-21
2023/08/17 13:44:42;;;;;;;;;;;;;;;;;;2211981;59;1473;-21
2023/08/17 13:47:12;;;;;;;;;;;;;;;;;;2212160;67;1268;-21
2023/08/17 13:49:43;;;;;;;;;;;;;;;;;;2212286;59;1372;-21
2023/08/17 13:52:13;;;;;;;;;;;;;;;;;;2212248;59;1452;-21
2023/08/17 13:54:45;;;;;;;;;;;;;;;;;;2211810;67;1241;-21
2023/08/17 13:57:15;;;;;;;;;;;;;;;;;;2208445;59;1787;-21
2023/08/17 13:59:45;;;;;;;;;;;;;;;;;;2212371;59;2284;-21
2023/08/17 14:02:19;;;;;;;;;;;;;;;;;;2211754;67;1369;-21
2023/08/17 14:04:49;;;;;;;;;;;;;;;;;;2206790;59;1458;-22
2023/08/17 14:07:19;;;;;;;;;;;;;;;;;;2212142;67;2205;-21
2023/08/17 14:09:53;;;;;;;;;;;;;;;;;;2209154;67;2093;-21
2023/08/17 14:12:23;;;;;;;;;;;;;;;;;;2212518;59;1305;-21
2023/08/17 14:14:53;;;;;;;;;;;;;;;;;;2212399;67;1858;-21
2023/08/17 14:17:23;;;;;;;;;;;;;;;;;;2211408;59;2274;-21
2023/08/17 14:19:54;;;;;;;;;;;;;;;;;;2208610;67;2505;-21
2023/08/17 14:22:25;;;;;;;;;;;;;;;;;;2212915;67;1775;-21
2023/08/17 14:24:55;;;;;;;;;;;;;;;;;;2212727;67;2009;-21
2023/08/17 14:27:28;;;;;;;;;;;;;;;;;;2213136;67;2013;-21
2023/08/17 14:30:01;;;;;;;;;;;;;;;;;;2212233;59;1539;-21
2023/08/17 14:32:31;;;;;;;;;;;;;;;;;;2207675;59;2426;-21
2023/08/17 14:35:01;;;;;;;;;;;;;;;;;;2211759;67;1787;-21
2023/08/17 14:37:32;;;;;;;;;;;;;;;;;;2212063;67;1461;-21
2023/08/17 14:40:03;;;;;;;;;;;;;;;;;;2209296;67;1937;-19
2023/08/17 14:42:33;;;;;;;;;;;;;;;;;;2209162;67;2111;-19
2023/08/17 14:45:04;;;;;;;;;;;;;;;;;;2212326;59;2593;-19
2023/08/17 14:47:34;;;;;;;;;;;;;;;;;;2213148;59;1422;-19
2023/08/17 14:50:04;;;;;;;;;;;;;;;;;;2209278;59;1714;-18
2023/08/17 14:52:34;;;;;;;;;;;;;;;;;;2209598;59;1622;-19
2023/08/17 14:55:05;;;;;;;;;;;;;;;;;;2212378;59;1631;-19
2023/08/17 14:57:35;;;;;;;;;;;;;;;;;;2213978;59;2033;-19
2023/08/17 15:00:06;;;;;;;;;;;;;;;;;;2208713;59;1941;-19
2023/08/17 15:02:39;;;;;;;;;;;;;;;;;;2213048;67;1280;-19
2023/08/17 15:05:09;;;;;;;;;;;;;;;;;;2212054;59;1834;-19
2023/08/17 15:07:39;;;;;;;;;;;;;;;;;;2213119;59;1734;-19
2023/08/17 15:10:09;;;;;;;;;;;;;;;;;;2207893;67;1682;-19
2023/08/17 15:12:40;;;;;;;;;;;;;;;;;;2212378;59;1670;-19
2023/08/17 15:15:10;;;;;;;;;;;;;;;;;;2207657;67;1855;-19
2023/08/17 15:17:40;;;;;;;;;;;;;;;;;;2212233;59;2638;-19
2023/08/17 15:20:14;;;;;;;;;;;;;;;;;;2207953;59;2277;-19
2023/08/17 15:22:44;;;;;;;;;;;;;;;;;;2212394;67;1840;-19
2023/08/17 15:25:14;;;;;;;;;;;;;;;;;;2211322;59;2115;-19
2023/08/17 15:27:45;;;;;;;;;;;;;;;;;;2208493;67;1783;-19
2023/08/17 15:30:16;;;;;;;;;;;;;;;;;;2211781;67;2342;-19
2023/08/17 15:32:46;;;;;;;;;;;;;;;;;;2212859;59;2571;-19
2023/08/17 15:35:16;;;;;;;;;;;;;;;;;;2209015;67;2028;-21
2023/08/17 15:37:46;;;;;;;;;;;;;;;;;;2211725;67;1169;-21
2023/08/17 15:40:17;;;;;;;;;;;;;;;;;;2211945;67;1929;-21
2023/08/17 15:42:47;;;;;;;;;;;;;;;;;;2208284;67;1771;-21
2023/08/17 15:45:18;;;;;;;;;;;;;;;;;;2212609;59;1723;-21
2023/08/17 15:47:48;;;;;;;;;;;;;;;;;;2213014;59;1268;-21
2023/08/17 15:50:18;;;;;;;;;;;;;;;;;;2212425;59;2121;-21
2023/08/17 15:52:48;;;;;;;;;;;;;;;;;;2213170;59;1916;-21
2023/08/17 15:55:19;;;;;;;;;;;;;;;;;;2208970;59;2155;-21
2023/08/17 15:57:49;;;;;;;;;;;;;;;;;;2209504;67;1588;-21
2023/08/17 16:00:19;;;;;;;;;;;;;;;;;;2211977;59;1909;-21
2023/08/17 16:02:49;;;;;;;;;;;;;;;;;;2212083;59;1304;-21
2023/08/17 16:05:19;;;;;;;;;;;;;;;;;;2211263;59;2078;-21
2023/08/17 16:07:50;;;;;;;;;;;;;;;;;;2212343;67;1596;-21
2023/08/17 16:10:20;;;;;;;;;;;;;;;;;;2212055;67;1561;-20
2023/08/17 16:12:50;;;;;;;;;;;;;;;;;;2212568;59;1654;-19
2023/08/17 16:15:20;;;;;;;;;;;;;;;;;;2205097;67;1249;-19
2023/08/17 16:17:51;;;;;;;;;;;;;;;;;;2209289;66;1979;-19
2023/08/17 16:20:21;;;;;;;;;;;;;;;;;;2211388;66;3285;-19
2023/08/17 16:22:51;;;;;;;;;;;;;;;;;;2212120;67;2405;-19
2023/08/17 16:25:21;;;;;;;;;;;;;;;;;;2211274;67;1832;-19
2023/08/17 16:27:51;;;;;;;;;;;;;;;;;;2209148;59;1810;-19
2023/08/17 16:30:22;;;;;;;;;;;;;;;;;;2212613;59;1618;-19
2023/08/17 16:32:52;;;;;;;;;;;;;;;;;;2212231;59;2231;-19
2023/08/17 16:35:25;;;;;;;;;;;;;;;;;;2212050;67;2518;-19
2023/08/17 16:37:55;;;;;;;;;;;;;;;;;;2212953;67;1739;-19
2023/08/17 16:40:26;;;;;;;;;;;;;;;;;;2212446;67;2000;-19
2023/08/17 16:42:56;;;;;;;;;;;;;;;;;;2212014;67;1758;-19
2023/08/17 16:45:26;;;;;;;;;;;;;;;;;;2209529;59;2814;-21
2023/08/17 16:47:56;;;;;;;;;;;;;;;;;;2212476;67;2256;-21
2023/08/17 16:50:28;;;;;;;;;;;;;;;;;;2212935;59;2143;-21
2023/08/17 16:52:58;;;;;;;;;;;;;;;;;;2212087;59;2043;-21
2023/08/17 16:55:28;;;;;;;;;;;;;;;;;;2212797;59;1630;-21
2023/08/17 16:57:58;;;;;;;;;;;;;;;;;;2212969;59;1665;-21
2023/08/17 17:00:29;;;;;;;;;;;;;;;;;;2210021;59;1933;-21
2023/08/17 17:02:59;;;;;;;;;;;;;;;;;;2212225;63;2446;-21
2023/08/17 17:05:29;;;;;;;;;;;;;;;;;;2209202;59;1510;-21
2023/08/17 17:08:00;;;;;;;;;;;;;;;;;;2209055;59;2350;-21
2023/08/17 17:10:30;;;;;;;;;;;;;;;;;;2213181;67;1849;-21
2023/08/17 17:13:00;;;;;;;;;;;;;;;;;;2212560;59;1742;-21
2023/08/17 17:15:31;;;;;;;;;;;;;;;;;;2209265;59;2363;-21
2023/08/17 17:18:01;;;;;;;;;;;;;;;;;;2212433;67;2372;-21
2023/08/17 17:20:31;;;;;;;;;;;;;;;;;;2208552;59;2293;-21
2023/08/17 17:23:02;;;;;;;;;;;;;;;;;;2211836;66;2143;-21
2023/08/17 17:25:32;;;;;;;;;;;;;;;;;;2212808;67;2299;-21
2023/08/17 17:28:03;;;;;;;;;;;;;;;;;;2208605;59;2287;-21